createdAt,value
2018-10-02T00:00:43.014Z,9.40
2018-10-02T00:03:11.788Z,12.30
2018-10-02T00:05:40.617Z,12.53
2018-10-02T00:08:09.520Z,10.67
2018-10-02T00:10:38.330Z,13.70
2018-10-02T00:13:12.463Z,11.40
2018-10-02T00:15:41.367Z,11.50
2018-10-02T00:18:10.233Z,9.40
2018-10-02T00:20:39.033Z,11.13
2018-10-02T00:23:07.816Z,10.70
2018-10-02T00:25:36.628Z,10.27
2018-10-02T00:28:05.432Z,10.47
2018-10-02T00:30:34.496Z,12.97
2018-10-02T00:33:03.444Z,10.60
2018-10-02T00:35:32.333Z,12.43
2018-10-02T00:38:01.128Z,11.97
2018-10-02T00:40:29.891Z,9.50
2018-10-02T00:42:58.733Z,10.53
2018-10-02T00:45:27.611Z,9.37
2018-10-02T00:47:56.431Z,11.77
2018-10-02T00:50:25.306Z,9.33
2018-10-02T00:52:54.400Z,9.27
2018-10-02T00:55:23.324Z,10.33
2018-10-02T00:57:52.180Z,11.33
2018-10-02T01:00:21.312Z,13.07
2018-10-02T01:02:50.234Z,13.03
2018-10-02T01:05:19.043Z,10.53
2018-10-02T01:07:47.964Z,10.13
2018-10-02T01:10:16.868Z,9.20
2018-10-02T01:12:45.790Z,9.37
2018-10-02T01:15:14.632Z,8.87
2018-10-02T01:17:43.597Z,9.30
2018-10-02T01:20:12.538Z,8.80
2018-10-02T01:22:41.330Z,10.83
2018-10-02T01:25:10.180Z,9.17
2018-10-02T01:27:38.075Z,11.50
2018-10-02T01:30:07.249Z,10.43
2018-10-02T01:32:36.353Z,9.17
2018-10-02T01:35:05.293Z,9.87
2018-10-02T01:37:34.083Z,9.33
2018-10-02T01:40:02.924Z,12.53
2018-10-02T01:42:31.735Z,10.03
2018-10-02T01:45:00.738Z,9.27
2018-10-02T01:47:29.543Z,9.53
2018-10-02T01:49:58.416Z,9.53
2018-10-02T01:52:27.245Z,12.67
2018-10-02T01:54:56.092Z,9.03
2018-10-02T01:57:24.847Z,12.10
2018-10-02T01:59:53.760Z,8.60
2018-10-02T02:02:22.560Z,11.07
2018-10-02T02:04:51.444Z,11.00
2018-10-02T02:07:20.269Z,9.83
2018-10-02T02:09:49.060Z,10.20
2018-10-02T02:12:17.862Z,10.03
2018-10-02T02:14:46.672Z,11.30
2018-10-02T02:17:15.465Z,12.80
2018-10-02T02:19:44.261Z,9.43
2018-10-02T02:22:13.038Z,10.97
2018-10-02T02:24:41.858Z,12.37
2018-10-02T02:27:10.679Z,10.60
2018-10-02T02:29:39.493Z,31.03
2018-10-02T02:32:08.309Z,28.93
2018-10-02T02:34:37.151Z,17.40
2018-10-02T02:37:06.088Z,15.67
2018-10-02T02:39:35.067Z,10.03
2018-10-02T02:42:04.388Z,11.00
2018-10-02T02:44:33.159Z,10.40
2018-10-02T02:47:07.244Z,10.77
2018-10-02T02:49:41.271Z,10.83
2018-10-02T02:52:10.284Z,11.27
2018-10-02T02:54:39.155Z,10.13
2018-10-02T02:57:08.264Z,13.33
2018-10-02T02:59:37.059Z,10.93
2018-10-02T03:02:05.983Z,9.67
2018-10-02T03:04:34.890Z,11.00
2018-10-02T03:07:03.825Z,9.63
2018-10-02T03:09:32.907Z,12.40
2018-10-02T03:12:01.777Z,11.37
2018-10-02T03:14:30.545Z,9.63
2018-10-02T03:16:59.472Z,14.50
2018-10-02T03:19:28.248Z,13.17
2018-10-02T03:21:57.217Z,10.33
2018-10-02T03:24:26.257Z,9.97
2018-10-02T03:26:55.047Z,12.33
2018-10-02T03:29:23.832Z,9.73
2018-10-02T03:31:52.675Z,10.80
2018-10-02T03:34:21.506Z,10.10
2018-10-02T03:36:50.443Z,8.93
2018-10-02T03:39:19.818Z,9.27
2018-10-02T03:41:48.580Z,9.07
2018-10-02T03:44:17.628Z,11.23
2018-10-02T03:46:46.493Z,9.13
2018-10-02T03:49:15.379Z,9.97
2018-10-02T03:51:44.243Z,9.77
2018-10-02T03:54:13.140Z,12.80
2018-10-02T03:56:42.036Z,10.00
2018-10-02T03:59:10.853Z,15.17
2018-10-02T04:01:39.812Z,9.40
2018-10-02T04:04:08.616Z,11.73
2018-10-02T04:06:37.543Z,14.23
2018-10-02T04:09:09.188Z,15.87
2018-10-02T04:11:38.243Z,16.47
2018-10-02T04:14:07.310Z,13.10
2018-10-02T04:16:36.088Z,14.90
2018-10-02T04:19:04.981Z,17.53
2018-10-02T04:21:35.656Z,14.33
2018-10-02T04:24:05.835Z,11.60
2018-10-02T04:26:35.794Z,13.00
2018-10-02T04:29:05.924Z,14.50
2018-10-02T04:31:36.173Z,10.40
2018-10-02T04:34:05.378Z,13.27
2018-10-02T04:36:34.423Z,11.47
2018-10-02T04:39:03.363Z,13.63
2018-10-02T04:41:32.171Z,19.17
2018-10-02T04:44:01.333Z,11.97
2018-10-02T04:46:30.204Z,14.50
2018-10-02T04:48:59.166Z,12.13
2018-10-02T04:51:28.067Z,14.20
2018-10-02T04:53:56.895Z,13.47
2018-10-02T04:56:25.811Z,14.63
2018-10-02T04:58:54.829Z,14.80
2018-10-02T05:01:24.228Z,9.67
2018-10-02T05:03:54.406Z,15.60
2018-10-02T05:06:23.301Z,16.27
2018-10-02T05:08:52.246Z,11.67
2018-10-02T05:11:21.924Z,10.93
2018-10-02T05:13:50.728Z,12.60
2018-10-02T05:16:19.685Z,11.70
2018-10-02T05:18:48.531Z,10.63
2018-10-02T05:21:17.394Z,13.97
2018-10-02T05:23:46.325Z,12.00
2018-10-02T05:26:15.274Z,31.63
2018-10-02T05:28:44.190Z,19.57
2018-10-02T05:31:13.090Z,18.93
2018-10-02T05:33:42.033Z,28.53
2018-10-02T05:36:11.077Z,28.70
2018-10-02T05:38:39.958Z,26.93
2018-10-02T05:41:08.854Z,27.57
2018-10-02T05:43:37.901Z,47.13
2018-10-02T05:46:06.790Z,32.67
2018-10-02T05:48:35.605Z,49.87
2018-10-02T05:51:04.539Z,38.77
2018-10-02T05:53:34.872Z,40.93
2018-10-02T05:56:03.714Z,38.20
2018-10-02T05:58:32.789Z,37.37
2018-10-02T06:01:01.826Z,38.73
2018-10-02T06:03:30.782Z,36.70
2018-10-02T06:05:59.581Z,47.40
2018-10-02T06:08:28.393Z,46.10
2018-10-02T06:10:57.325Z,43.10
2018-10-02T06:13:26.289Z,49.67
2018-10-02T06:15:55.443Z,49.27
2018-10-02T06:18:24.298Z,40.50
2018-10-02T06:20:53.449Z,41.43
2018-10-02T06:23:22.531Z,39.87
2018-10-02T06:25:51.459Z,40.27
2018-10-02T06:28:20.307Z,45.40
2018-10-02T06:30:49.271Z,47.70
2018-10-02T06:33:18.213Z,37.17
2018-10-02T06:35:47.134Z,29.93
2018-10-02T06:38:16.290Z,37.70
2018-10-02T06:40:45.317Z,37.77
2018-10-02T06:43:14.203Z,29.77
2018-10-02T06:45:43.061Z,32.57
2018-10-02T06:48:11.946Z,33.63
2018-10-02T06:50:40.905Z,42.53
2018-10-02T06:53:10.907Z,39.43
2018-10-02T06:55:39.763Z,34.43
2018-10-02T06:58:08.585Z,34.80
2018-10-02T07:00:37.401Z,38.80
2018-10-02T07:03:06.815Z,34.97
2018-10-02T07:05:35.792Z,32.57
2018-10-02T07:08:04.685Z,37.50
2018-10-02T07:10:35.241Z,31.73
2018-10-02T07:13:04.133Z,35.37
2018-10-02T07:15:33.033Z,37.20
2018-10-02T07:18:02.068Z,30.53
2018-10-02T07:20:31.016Z,32.23
2018-10-02T07:23:00.068Z,31.67
2018-10-02T07:25:28.964Z,28.47
2018-10-02T07:27:58.102Z,28.87
2018-10-02T07:30:27.056Z,30.40
2018-10-02T07:32:56.171Z,27.93
2018-10-02T07:35:25.229Z,25.33
2018-10-02T07:37:54.117Z,24.27
2018-10-02T07:40:23.046Z,23.93
2018-10-02T07:42:51.913Z,22.13
2018-10-02T07:45:20.784Z,25.17
2018-10-02T07:47:49.708Z,24.80
2018-10-02T07:50:18.526Z,21.53
2018-10-02T07:52:47.370Z,21.27
2018-10-02T07:55:16.707Z,27.73
2018-10-02T07:57:45.544Z,20.90
2018-10-02T08:00:14.477Z,24.63
2018-10-02T08:02:43.409Z,25.83
2018-10-02T08:05:12.527Z,30.27
2018-10-02T08:07:41.590Z,26.90
2018-10-02T08:10:10.477Z,24.67
2018-10-02T08:12:39.377Z,22.30
2018-10-02T08:15:08.260Z,23.27
2018-10-02T08:17:37.269Z,24.30
2018-10-02T08:20:06.357Z,28.60
2018-10-02T08:22:35.297Z,31.73
2018-10-02T08:25:04.289Z,26.30
2018-10-02T08:27:33.225Z,23.23
2018-10-02T08:30:02.267Z,24.47
2018-10-02T08:32:31.332Z,23.33
2018-10-02T08:35:00.330Z,23.33
2018-10-02T08:37:29.215Z,26.23
2018-10-02T08:39:58.232Z,24.80
2018-10-02T08:42:27.077Z,24.73
2018-10-02T08:44:56.059Z,23.03
2018-10-02T08:47:25.251Z,24.47
2018-10-02T08:49:54.948Z,27.20
2018-10-02T08:52:23.833Z,23.90
2018-10-02T08:54:52.643Z,24.07
2018-10-02T08:57:21.544Z,21.07
2018-10-02T08:59:50.405Z,24.30
2018-10-02T09:02:19.562Z,19.53
2018-10-02T09:04:48.604Z,27.80
2018-10-02T09:07:17.393Z,22.97
2018-10-02T09:09:46.266Z,22.97
2018-10-02T09:12:15.129Z,23.57
2018-10-02T09:14:44.452Z,22.63
2018-10-02T09:17:13.329Z,22.77
2018-10-02T09:19:42.160Z,27.17
2018-10-02T09:22:11.064Z,22.33
2018-10-02T09:24:40.210Z,23.83
2018-10-02T09:27:09.280Z,22.47
2018-10-02T09:29:42.245Z,23.00
2018-10-02T09:32:16.432Z,19.57
2018-10-02T09:34:50.544Z,22.37
2018-10-02T09:37:24.707Z,25.50
2018-10-02T09:39:58.807Z,31.73
2018-10-02T09:42:32.992Z,19.63
2018-10-02T09:45:02.162Z,20.70
2018-10-02T09:47:31.082Z,20.07
2018-10-02T09:49:59.939Z,19.07
2018-10-02T09:52:29.005Z,19.70
2018-10-02T09:54:57.856Z,20.50
2018-10-02T09:57:26.870Z,19.73
2018-10-02T09:59:55.728Z,18.43
2018-10-02T10:02:29.925Z,21.10
2018-10-02T10:04:58.982Z,31.70
2018-10-02T10:07:27.925Z,17.67
2018-10-02T10:09:56.765Z,20.17
2018-10-02T10:12:25.638Z,23.50
2018-10-02T10:14:54.539Z,19.90
2018-10-02T10:17:23.452Z,22.77
2018-10-02T10:19:52.476Z,18.50
2018-10-02T10:22:21.375Z,20.60
2018-10-02T10:24:50.177Z,23.50
2018-10-02T10:27:18.973Z,18.20
2018-10-02T10:29:47.800Z,21.07
2018-10-02T10:32:16.693Z,17.97
2018-10-02T10:34:45.993Z,15.03
2018-10-02T10:37:15.071Z,16.43
2018-10-02T10:39:43.892Z,18.60
2018-10-02T10:42:12.748Z,16.20
2018-10-02T10:44:41.645Z,16.03
2018-10-02T10:47:10.495Z,21.60
2018-10-02T10:49:39.326Z,16.27
2018-10-02T10:52:08.284Z,17.37
2018-10-02T10:54:37.140Z,20.10
2018-10-02T10:57:06.002Z,17.80
2018-10-02T10:59:34.891Z,12.90
2018-10-02T11:02:03.798Z,16.43
2018-10-02T11:04:32.812Z,12.07
2018-10-02T11:07:01.865Z,11.43
2018-10-02T11:09:30.712Z,14.63
2018-10-02T11:11:59.745Z,11.40
2018-10-02T11:14:28.585Z,14.83
2018-10-02T11:16:57.618Z,13.03
2018-10-02T11:19:26.516Z,13.83
2018-10-02T11:21:55.422Z,9.67
2018-10-02T11:24:24.442Z,10.60
2018-10-02T11:26:53.283Z,16.33
2018-10-02T11:29:22.182Z,12.83
2018-10-02T11:31:51.106Z,16.10
2018-10-02T11:34:20.116Z,14.60
2018-10-02T11:36:49.097Z,15.70
2018-10-02T11:39:17.942Z,11.53
2018-10-02T11:41:47.443Z,15.87
2018-10-02T11:44:18.797Z,18.07
2018-10-02T11:46:47.822Z,15.90
2018-10-02T11:49:16.665Z,13.17
2018-10-02T11:51:45.824Z,13.33
2018-10-02T11:54:14.899Z,14.13
2018-10-02T11:56:44.174Z,13.83
2018-10-02T11:59:13.056Z,12.80
2018-10-02T12:01:41.914Z,13.70
2018-10-02T12:04:11.023Z,14.60
2018-10-02T12:06:39.859Z,12.20
2018-10-02T12:09:08.882Z,10.87
2018-10-02T12:11:37.980Z,13.80
2018-10-02T12:14:07.133Z,10.37
2018-10-02T12:16:36.170Z,12.37
2018-10-02T12:19:05.541Z,9.27
2018-10-02T12:21:34.408Z,11.50
2018-10-02T12:24:03.358Z,8.43
2018-10-02T12:26:32.230Z,8.70
2018-10-02T12:29:01.129Z,10.07
2018-10-02T12:31:29.942Z,10.90
2018-10-02T12:33:58.781Z,8.80
2018-10-02T12:36:27.979Z,8.57
2018-10-02T12:38:56.924Z,8.17
2018-10-02T12:41:26.072Z,7.50
2018-10-02T12:43:54.925Z,12.07
2018-10-02T12:46:23.751Z,8.90
2018-10-02T12:48:52.749Z,8.73
2018-10-02T12:51:21.760Z,9.47
2018-10-02T12:53:50.789Z,11.80
2018-10-02T12:56:19.666Z,10.27
2018-10-02T12:58:48.527Z,9.83
2018-10-02T13:01:18.279Z,7.60
2018-10-02T13:03:47.142Z,7.87
2018-10-02T13:06:15.974Z,10.67
2018-10-02T13:08:44.977Z,9.00
2018-10-02T13:11:13.806Z,12.67
2018-10-02T13:13:42.819Z,10.27
2018-10-02T13:16:11.798Z,10.33
2018-10-02T13:18:40.674Z,11.90
2018-10-02T13:21:09.633Z,8.20
2018-10-02T13:23:38.481Z,9.00
2018-10-02T13:26:07.336Z,9.87
2018-10-02T13:28:36.297Z,7.77
2018-10-02T13:31:05.134Z,9.80
2018-10-02T13:33:34.051Z,9.50
2018-10-02T13:36:02.946Z,12.47
2018-10-02T13:38:31.823Z,8.23
2018-10-02T13:41:00.891Z,10.53
2018-10-02T13:43:29.814Z,6.83
2018-10-02T13:45:58.653Z,7.90
2018-10-02T13:48:27.599Z,10.73
2018-10-02T13:50:56.524Z,8.77
2018-10-02T13:53:25.396Z,9.97
2018-10-02T13:55:54.291Z,10.80
2018-10-02T13:58:23.292Z,11.00
2018-10-02T14:00:52.280Z,10.23
2018-10-02T14:03:21.102Z,9.53
2018-10-02T14:05:49.944Z,10.13
2018-10-02T14:08:18.974Z,8.77
2018-10-02T14:10:48.058Z,7.23
2018-10-02T14:13:16.927Z,7.83
2018-10-02T14:15:45.759Z,7.93
2018-10-02T14:18:14.566Z,7.40
2018-10-02T14:20:43.538Z,8.67
2018-10-02T14:23:19.143Z,9.30
2018-10-02T14:25:48.182Z,8.57
2018-10-02T14:28:17.066Z,10.17
2018-10-02T14:30:46.072Z,12.33
2018-10-02T14:33:15.092Z,11.97
2018-10-02T14:35:44.059Z,9.47
2018-10-02T14:38:13.901Z,16.60
2018-10-02T14:40:42.923Z,27.40
2018-10-02T14:43:12.067Z,22.00
2018-10-02T14:45:41.365Z,14.37
2018-10-02T14:48:10.303Z,8.83
2018-10-02T14:50:39.537Z,11.20
2018-10-02T14:53:08.646Z,16.63
2018-10-02T14:55:37.685Z,10.00
2018-10-02T14:58:07.541Z,11.77
2018-10-02T15:00:37.210Z,11.33
2018-10-02T15:03:06.503Z,13.63
2018-10-02T15:05:35.508Z,12.60
2018-10-02T15:08:04.349Z,8.93
2018-10-02T15:10:33.172Z,10.87
2018-10-02T15:13:02.166Z,10.53
2018-10-02T15:15:31.103Z,11.57
2018-10-02T15:18:00.068Z,14.30
2018-10-02T15:20:29.251Z,9.43
2018-10-02T15:22:58.274Z,14.27
2018-10-02T15:25:27.208Z,9.07
2018-10-02T15:27:56.138Z,9.27
2018-10-02T15:30:25.312Z,9.47
2018-10-02T15:32:54.148Z,12.97
2018-10-02T15:35:22.988Z,14.20
2018-10-02T15:37:52.000Z,10.17
2018-10-02T15:40:20.952Z,12.83
2018-10-02T15:42:49.807Z,13.67
2018-10-02T15:45:18.727Z,13.43
2018-10-02T15:47:47.708Z,15.40
2018-10-02T15:50:16.594Z,22.67
2018-10-02T15:52:45.468Z,12.80
2018-10-02T15:55:14.352Z,17.80
2018-10-02T15:57:43.234Z,14.13
2018-10-02T16:00:12.084Z,15.13
2018-10-02T16:02:40.961Z,11.27
2018-10-02T16:05:09.882Z,11.67
2018-10-02T16:07:38.677Z,15.47
2018-10-02T16:10:07.645Z,10.33
2018-10-02T16:12:36.582Z,13.00
2018-10-02T16:15:05.555Z,13.50
2018-10-02T16:17:34.421Z,12.50
2018-10-02T16:20:03.347Z,16.73
2018-10-02T16:22:32.215Z,25.27
2018-10-02T16:25:01.163Z,25.53
2018-10-02T16:27:30.383Z,14.20
2018-10-02T16:29:59.258Z,14.97
2018-10-02T16:32:28.074Z,23.53
2018-10-02T16:34:57.018Z,14.30
2018-10-02T16:37:26.016Z,15.37
2018-10-02T16:39:55.029Z,10.30
2018-10-02T16:42:23.991Z,12.60
2018-10-02T16:44:52.941Z,13.07
2018-10-02T16:47:21.864Z,10.20
2018-10-02T16:49:50.647Z,9.80
2018-10-02T16:52:19.628Z,15.57
2018-10-02T16:54:48.656Z,11.73
2018-10-02T16:57:17.602Z,15.20
2018-10-02T16:59:46.736Z,8.63
2018-10-02T17:02:15.557Z,11.13
2018-10-02T17:04:44.608Z,12.33
2018-10-02T17:07:13.453Z,9.60
2018-10-02T17:09:42.285Z,13.60
2018-10-02T17:12:11.189Z,16.50
2018-10-02T17:14:40.086Z,17.77
2018-10-02T17:17:08.985Z,14.77
2018-10-02T17:19:37.831Z,12.73
2018-10-02T17:22:06.738Z,12.90
2018-10-02T17:24:35.598Z,13.77
2018-10-02T17:27:04.537Z,10.97
2018-10-02T17:29:33.397Z,11.70
2018-10-02T17:32:02.279Z,11.40
2018-10-02T17:34:31.132Z,9.90
2018-10-02T17:37:00.001Z,11.30
2018-10-02T17:39:29.010Z,13.17
2018-10-02T17:41:57.954Z,13.83
2018-10-02T17:44:26.762Z,15.37
2018-10-02T17:46:55.713Z,12.80
2018-10-02T17:49:24.934Z,12.23
2018-10-02T17:51:53.887Z,12.00
2018-10-02T17:54:22.962Z,12.43
2018-10-02T17:56:52.006Z,11.10
2018-10-02T17:59:20.933Z,12.57
2018-10-02T18:01:49.984Z,12.63
2018-10-02T18:04:18.907Z,12.20
2018-10-02T18:06:47.848Z,15.63
2018-10-02T18:09:16.719Z,11.73
2018-10-02T18:11:45.545Z,11.43
2018-10-02T18:14:14.590Z,10.10
2018-10-02T18:16:43.456Z,11.90
2018-10-02T18:19:12.347Z,14.37
2018-10-02T18:21:41.193Z,10.73
2018-10-02T18:24:10.202Z,11.10
2018-10-02T18:26:39.034Z,12.67
2018-10-02T18:29:08.019Z,17.50
2018-10-02T18:31:41.287Z,12.20
2018-10-02T18:34:10.351Z,15.83
2018-10-02T18:36:39.255Z,13.20
2018-10-02T18:39:08.642Z,11.97
2018-10-02T18:41:37.601Z,15.50
2018-10-02T18:44:06.779Z,14.00
2018-10-02T18:46:36.301Z,12.90
2018-10-02T18:49:05.811Z,14.43
2018-10-02T18:51:35.043Z,15.90
2018-10-02T18:54:03.943Z,15.83
2018-10-02T18:56:33.140Z,14.80
2018-10-02T18:59:02.296Z,16.53
2018-10-02T19:01:31.157Z,15.80
2018-10-02T19:04:00.008Z,17.53
2018-10-02T19:06:28.911Z,18.90
2018-10-02T19:09:15.379Z,16.70
2018-10-02T19:11:49.427Z,16.63
2018-10-02T19:14:19.195Z,17.73
2018-10-02T19:16:48.132Z,18.47
2018-10-02T19:19:22.273Z,18.20
2018-10-02T19:21:51.190Z,18.20
2018-10-02T19:24:20.134Z,18.27
2018-10-02T19:26:49.122Z,19.43
2018-10-02T19:29:18.009Z,21.73
2018-10-02T19:31:52.043Z,19.60
2018-10-02T19:34:21.126Z,18.40
2018-10-02T19:36:49.997Z,19.80
2018-10-02T19:39:25.624Z,20.47
2018-10-02T19:41:54.754Z,20.50
2018-10-02T19:44:23.651Z,20.67
2018-10-02T19:46:54.185Z,22.97
2018-10-02T19:49:24.554Z,22.33
2018-10-02T19:51:58.716Z,22.50
2018-10-02T19:54:27.977Z,22.80
2018-10-02T19:56:57.067Z,22.97
2018-10-02T19:59:25.981Z,23.60
2018-10-02T20:01:55.087Z,25.17
2018-10-02T20:04:24.146Z,27.33
2018-10-02T20:06:53.250Z,28.33
2018-10-02T20:09:22.137Z,29.13
2018-10-02T20:11:51.016Z,28.80
2018-10-02T20:14:19.912Z,31.70
2018-10-02T20:16:48.848Z,34.37
2018-10-02T20:19:17.725Z,33.00
2018-10-02T20:21:46.602Z,34.43
2018-10-02T20:24:15.423Z,38.63
2018-10-02T20:26:44.375Z,35.93
2018-10-02T20:29:13.302Z,36.33
2018-10-02T20:31:44.041Z,36.23
2018-10-02T20:34:12.894Z,37.73
2018-10-02T20:36:41.805Z,37.27
2018-10-02T20:39:11.659Z,37.27
2018-10-02T20:41:40.652Z,37.97
2018-10-02T20:44:09.953Z,42.23
2018-10-02T20:46:38.837Z,38.90
2018-10-02T20:49:07.781Z,44.20
2018-10-02T20:51:36.874Z,42.13
2018-10-02T20:54:05.724Z,42.60
2018-10-02T20:56:34.609Z,40.00
2018-10-02T20:59:03.571Z,42.80
2018-10-02T21:01:32.498Z,42.80
2018-10-02T21:04:01.381Z,40.60
2018-10-02T21:06:30.272Z,44.07
2018-10-02T21:08:59.239Z,43.80
2018-10-02T21:11:28.055Z,47.00
2018-10-02T21:13:56.987Z,42.90
2018-10-02T21:16:25.800Z,43.07
2018-10-02T21:18:54.612Z,45.93
2018-10-02T21:21:23.514Z,44.13
2018-10-02T21:23:52.396Z,44.83
2018-10-02T21:26:21.301Z,47.40
2018-10-02T21:28:50.174Z,42.83
2018-10-02T21:31:26.020Z,47.17
2018-10-02T21:33:55.184Z,43.63
2018-10-02T21:36:24.208Z,43.83
2018-10-02T21:38:53.115Z,45.10
2018-10-02T21:41:22.006Z,46.77
2018-10-02T21:43:50.896Z,44.20
2018-10-02T21:46:19.713Z,43.77
2018-10-02T21:48:48.521Z,49.23
2018-10-02T21:51:17.358Z,45.00
2018-10-02T21:53:46.229Z,43.30
2018-10-02T21:56:15.050Z,45.00
2018-10-02T21:58:43.978Z,44.43
2018-10-02T22:01:12.899Z,46.73
2018-10-02T22:03:41.776Z,43.27
2018-10-02T22:06:10.661Z,44.57
2018-10-02T22:08:39.509Z,43.43
2018-10-02T22:11:08.362Z,47.50
2018-10-02T22:13:37.191Z,42.40
2018-10-02T22:16:06.365Z,43.40
2018-10-02T22:18:35.247Z,44.13
2018-10-02T22:21:04.234Z,45.30
2018-10-02T22:23:33.080Z,43.97
2018-10-02T22:26:02.948Z,45.50
2018-10-02T22:28:31.860Z,45.47
2018-10-02T22:31:00.805Z,41.77
2018-10-02T22:33:29.748Z,42.80
2018-10-02T22:35:58.803Z,41.70
2018-10-02T22:38:27.629Z,44.03
2018-10-02T22:40:56.474Z,41.27
2018-10-02T22:43:25.297Z,48.13
2018-10-02T22:45:54.122Z,41.07
2018-10-02T22:48:22.923Z,46.17
2018-10-02T22:50:51.745Z,46.17
2018-10-02T22:53:20.658Z,39.97
2018-10-02T22:55:49.535Z,42.73
2018-10-02T22:58:18.452Z,47.07
2018-10-02T23:00:47.391Z,40.83
2018-10-02T23:03:16.808Z,43.13
2018-10-02T23:05:45.761Z,45.03
2018-10-02T23:08:14.609Z,40.63
2018-10-02T23:10:43.427Z,42.73
2018-10-02T23:13:12.333Z,39.50
2018-10-02T23:15:41.216Z,42.90
2018-10-02T23:18:10.021Z,40.37
2018-10-02T23:20:38.863Z,41.80
2018-10-02T23:23:07.901Z,40.20
2018-10-02T23:25:36.748Z,40.50
2018-10-02T23:28:05.678Z,41.23
2018-10-02T23:30:34.586Z,41.87
2018-10-02T23:33:03.503Z,39.63
2018-10-02T23:35:32.674Z,39.17
2018-10-02T23:38:01.573Z,41.40
2018-10-02T23:40:30.377Z,40.90
2018-10-02T23:42:59.349Z,40.80
2018-10-02T23:45:28.302Z,37.83
2018-10-02T23:47:57.133Z,41.23
2018-10-02T23:50:25.955Z,39.17
2018-10-02T23:52:54.901Z,41.77
2018-10-02T23:55:23.802Z,41.67
2018-10-02T23:57:53.604Z,40.43
